createdAt,value
2022-10-01T00:01:00.744Z,99049.00
2022-10-01T00:03:29.501Z,99051.41
2022-10-01T00:06:09.534Z,99047.06
2022-10-01T00:08:37.491Z,99041.16
2022-10-01T00:11:16.050Z,99039.16
2022-10-01T00:13:43.681Z,99041.13
2022-10-01T00:16:16.100Z,99047.44
2022-10-01T00:18:45.511Z,99043.88
2022-10-01T00:21:17.765Z,99049.84
2022-10-01T00:23:44.324Z,99034.88
2022-10-01T00:26:17.098Z,99039.16
2022-10-01T00:28:45.648Z,99030.44
2022-10-01T00:31:13.211Z,99020.94
2022-10-01T00:33:39.952Z,99032.75
2022-10-01T00:36:07.734Z,99025.66
2022-10-01T00:38:34.816Z,99028.00
2022-10-01T00:41:01.443Z,99023.31
2022-10-01T00:43:31.875Z,99032.78
2022-10-01T00:46:07.010Z,99039.91
2022-10-01T00:48:39.937Z,99041.09
2022-10-01T00:51:06.638Z,99032.38
2022-10-01T00:53:33.234Z,99030.81
2022-10-01T00:55:59.960Z,99031.63
2022-10-01T00:58:27.388Z,99029.31
2022-10-01T01:00:55.939Z,99032.06
2022-10-01T01:03:22.864Z,99030.88
2022-10-01T01:05:50.251Z,99020.97
2022-10-01T01:08:17.914Z,99022.13
2022-10-01T01:11:01.657Z,99015.03
2022-10-01T01:13:47.627Z,99013.84
2022-10-01T01:16:23.397Z,99017.41
2022-10-01T01:19:04.714Z,99018.59
2022-10-01T01:21:52.127Z,99030.44
2022-10-01T01:24:36.835Z,99024.88
2022-10-01T01:27:16.430Z,99023.31
2022-10-01T01:30:06.119Z,99009.84
2022-10-01T01:32:39.506Z,99004.31
2022-10-01T01:35:10.183Z,98999.97
2022-10-01T01:37:45.220Z,98996.44
2022-10-01T01:40:15.000Z,98998.00
2022-10-01T01:42:44.096Z,98999.97
2022-10-01T01:45:17.565Z,99011.38
2022-10-01T01:47:45.390Z,99005.03
2022-10-01T01:50:14.251Z,99008.97
2022-10-01T01:52:41.294Z,99026.66
2022-10-01T01:55:09.952Z,99036.50
2022-10-01T01:57:39.874Z,99039.25
2022-10-01T02:00:07.055Z,99040.88
2022-10-01T02:02:36.113Z,99035.75
2022-10-01T02:05:08.784Z,99048.75
2022-10-01T02:08:05.939Z,99046.13
2022-10-01T02:10:57.783Z,99036.75
2022-10-01T02:13:33.603Z,99028.09
2022-10-01T02:16:18.918Z,99028.03
2022-10-01T02:19:16.298Z,99025.59
2022-10-01T02:21:56.121Z,99024.03
2022-10-01T02:24:42.483Z,99039.03
2022-10-01T02:27:20.317Z,99030.00
2022-10-01T02:29:49.664Z,99042.31
2022-10-01T02:32:18.224Z,99030.50
2022-10-01T02:34:47.436Z,99040.00
2022-10-01T02:37:14.975Z,99043.16
2022-10-01T02:39:42.430Z,99058.97
2022-10-01T02:42:12.363Z,99062.13
2022-10-01T02:44:42.601Z,99056.22
2022-10-01T02:47:19.980Z,99048.03
2022-10-01T02:49:47.717Z,99050.47
2022-10-01T02:52:21.961Z,99055.53
2022-10-01T02:55:03.406Z,99054.75
2022-10-01T02:57:29.999Z,99064.91
2022-10-01T02:59:59.187Z,99056.59
2022-10-01T03:02:31.535Z,99054.22
2022-10-01T03:04:59.376Z,99058.91
2022-10-01T03:07:27.656Z,99050.97
2022-10-01T03:09:54.419Z,99057.63
2022-10-01T03:12:21.871Z,99068.22
2022-10-01T03:14:48.475Z,99059.53
2022-10-01T03:17:16.152Z,99053.56
2022-10-01T03:19:42.905Z,99055.94
2022-10-01T03:22:12.990Z,99058.38
2022-10-01T03:24:39.677Z,99056.50
2022-10-01T03:27:06.694Z,99068.41
2022-10-01T03:29:33.369Z,99062.09
2022-10-01T03:32:00.081Z,99063.69
2022-10-01T03:34:26.788Z,99068.88
2022-10-01T03:36:53.427Z,99073.19
2022-10-01T03:39:20.000Z,99075.59
2022-10-01T03:41:46.546Z,99062.13
2022-10-01T03:44:13.155Z,99061.34
2022-10-01T03:46:39.815Z,99073.16
2022-10-01T03:49:06.407Z,99086.56
2022-10-01T03:51:33.581Z,99082.66
2022-10-01T03:54:00.373Z,99077.56
2022-10-01T03:56:26.973Z,99079.16
2022-10-01T03:58:53.759Z,99075.69
2022-10-01T04:01:20.721Z,99073.25
2022-10-01T04:03:48.313Z,99071.31
2022-10-01T04:06:15.225Z,99056.59
2022-10-01T04:08:41.737Z,99064.03
2022-10-01T04:11:08.567Z,99075.78
2022-10-01T04:13:35.639Z,99079.75
2022-10-01T04:16:03.337Z,99075.44
2022-10-01T04:18:30.947Z,99085.72
2022-10-01T04:20:58.124Z,99088.88
2022-10-01T04:23:25.203Z,99085.78
2022-10-01T04:25:51.871Z,99084.63
2022-10-01T04:28:18.863Z,99092.03
2022-10-01T04:30:46.522Z,99080.91
2022-10-01T04:33:15.971Z,99081.63
2022-10-01T04:35:43.679Z,99083.22
2022-10-01T04:38:16.271Z,99086.00
2022-10-01T04:40:42.840Z,99093.44
2022-10-01T04:43:10.787Z,99088.72
2022-10-01T04:45:38.420Z,99083.53
2022-10-01T04:48:05.287Z,99065.78
2022-10-01T04:50:32.381Z,99075.25
2022-10-01T04:52:59.003Z,99066.47
2022-10-01T04:55:25.823Z,99086.19
2022-10-01T04:57:52.351Z,99088.50
2022-10-01T05:00:21.856Z,99096.75
2022-10-01T05:02:49.931Z,99099.84
2022-10-01T05:05:18.655Z,99110.91
2022-10-01T05:07:45.471Z,99107.03
2022-10-01T05:10:14.893Z,99116.06
2022-10-01T05:12:42.084Z,99114.91
2022-10-01T05:15:09.548Z,99116.94
2022-10-01T05:17:36.136Z,99127.22
2022-10-01T05:20:06.212Z,99121.75
2022-10-01T05:22:33.165Z,99131.72
2022-10-01T05:25:00.383Z,99125.81
2022-10-01T05:27:27.717Z,99132.16
2022-10-01T05:29:54.277Z,99134.53
2022-10-01T05:32:20.756Z,99121.06
2022-10-01T05:34:52.676Z,99122.66
2022-10-01T05:37:20.111Z,99129.19
2022-10-01T05:39:46.766Z,99122.47
2022-10-01T05:42:13.330Z,99107.53
2022-10-01T05:44:45.960Z,99113.44
2022-10-01T05:47:14.059Z,99112.06
2022-10-01T05:49:42.933Z,99109.75
2022-10-01T05:52:13.962Z,99107.38
2022-10-01T05:54:41.156Z,99105.81
2022-10-01T05:57:08.144Z,99107.38
2022-10-01T05:59:35.474Z,99116.47
2022-10-01T06:02:03.910Z,99121.16
2022-10-01T06:04:38.972Z,99116.06
2022-10-01T06:07:07.526Z,99125.16
2022-10-01T06:09:34.055Z,99130.28
2022-10-01T06:12:00.827Z,99125.94
2022-10-01T06:14:27.630Z,99127.09
2022-10-01T06:16:54.768Z,99113.72
2022-10-01T06:19:21.458Z,99113.69
2022-10-01T06:21:48.003Z,99117.25
2022-10-01T06:24:14.549Z,99117.25
2022-10-01T06:26:41.246Z,99104.25
2022-10-01T06:29:07.954Z,99114.94
2022-10-01T06:31:34.855Z,99107.91
2022-10-01T06:34:01.711Z,99104.41
2022-10-01T06:36:28.212Z,99100.16
2022-10-01T06:38:54.724Z,99106.53
2022-10-01T06:41:21.270Z,99106.97
2022-10-01T06:43:49.222Z,99105.38
2022-10-01T06:46:15.809Z,99108.97
2022-10-01T06:48:42.391Z,99103.41
2022-10-01T06:51:09.094Z,99110.13
2022-10-01T06:53:35.785Z,99099.84
2022-10-01T06:56:07.650Z,99097.47
2022-10-01T06:58:34.979Z,99095.88
2022-10-01T07:01:03.940Z,99092.69
2022-10-01T07:03:31.523Z,99089.09
2022-10-01T07:06:05.501Z,99100.97
2022-10-01T07:08:33.368Z,99089.47
2022-10-01T07:11:03.707Z,99101.38
2022-10-01T07:13:30.763Z,99111.66
2022-10-01T07:15:57.360Z,99106.13
2022-10-01T07:18:24.214Z,99106.91
2022-10-01T07:20:50.866Z,99107.72
2022-10-01T07:23:17.518Z,99105.31
2022-10-01T07:25:44.921Z,99095.41
2022-10-01T07:28:18.094Z,99091.41
2022-10-01T07:30:47.461Z,99089.47
2022-10-01T07:33:20.007Z,99084.75
2022-10-01T07:35:48.006Z,99080.41
2022-10-01T07:38:14.674Z,99085.13
2022-10-01T07:40:41.820Z,99082.34
2022-10-01T07:43:08.895Z,99086.22
2022-10-01T07:45:35.521Z,99083.06
2022-10-01T07:48:03.420Z,99067.56
2022-10-01T07:50:32.976Z,99066.34
2022-10-01T07:53:00.273Z,99064.78
2022-10-01T07:55:30.683Z,99077.06
2022-10-01T07:58:01.691Z,99081.78
2022-10-01T08:00:30.185Z,99080.56
2022-10-01T08:02:57.273Z,99076.56
2022-10-01T08:05:27.170Z,99074.63
2022-10-01T08:07:54.068Z,99076.22
2022-10-01T08:10:23.214Z,99074.91
2022-10-01T08:12:50.067Z,99086.75
2022-10-01T08:15:18.501Z,99090.72
2022-10-01T08:17:45.202Z,99099.19
2022-10-01T08:20:13.922Z,99086.53
2022-10-01T08:22:42.358Z,99083.28
2022-10-01T08:25:09.296Z,99084.41
2022-10-01T08:27:36.613Z,99090.63
2022-10-01T08:30:03.689Z,99090.56
2022-10-01T08:32:31.225Z,99093.28
2022-10-01T08:34:59.948Z,99092.75
2022-10-01T08:37:28.704Z,99103.47
2022-10-01T08:39:56.534Z,99106.53
2022-10-01T08:42:33.334Z,99119.00
2022-10-01T08:45:05.530Z,99123.03
2022-10-01T08:47:38.285Z,99116.34
2022-10-01T08:50:22.768Z,99114.34
2022-10-01T08:52:55.155Z,99109.19
2022-10-01T08:55:26.234Z,99114.75
2022-10-01T08:58:03.068Z,99117.53
2022-10-01T09:00:32.686Z,99106.84
2022-10-01T09:03:04.526Z,99100.09
2022-10-01T09:05:36.512Z,99100.09
2022-10-01T09:08:44.192Z,99097.34
2022-10-01T09:11:23.834Z,99102.13
2022-10-01T09:14:34.763Z,99100.53
2022-10-01T09:17:13.143Z,99107.69
2022-10-01T09:19:50.325Z,99094.25
2022-10-01T09:22:27.809Z,99086.31
2022-10-01T09:25:09.817Z,99087.88
2022-10-01T09:27:38.419Z,99087.81
2022-10-01T09:30:19.772Z,99077.97
2022-10-01T09:32:56.759Z,99078.38
2022-10-01T09:35:52.712Z,99084.75
2022-10-01T09:38:24.274Z,99081.97
2022-10-01T09:40:54.928Z,99088.28
2022-10-01T09:43:23.412Z,99083.13
2022-10-01T09:45:52.921Z,99088.69
2022-10-01T09:48:38.351Z,99078.75
2022-10-01T09:51:13.977Z,99087.09
2022-10-01T09:53:53.042Z,99080.31
2022-10-01T09:56:26.637Z,99078.34
2022-10-01T09:58:56.845Z,99076.72
2022-10-01T10:01:31.544Z,99081.44
2022-10-01T10:03:58.421Z,99080.22
2022-10-01T10:06:30.477Z,99075.81
2022-10-01T10:08:59.646Z,99086.13
2022-10-01T10:11:32.215Z,99087.66
2022-10-01T10:14:03.457Z,99088.47
2022-10-01T10:16:37.839Z,99086.88
2022-10-01T10:19:10.327Z,99081.31
2022-10-01T10:21:37.848Z,99082.88
2022-10-01T10:24:07.393Z,99084.41
2022-10-01T10:26:38.557Z,99083.16
2022-10-01T10:29:08.590Z,99082.81
2022-10-01T10:31:40.703Z,99070.47
2022-10-01T10:34:18.522Z,99070.75
2022-10-01T10:36:46.796Z,99067.97
2022-10-01T10:39:46.659Z,99058.56
2022-10-01T10:42:18.787Z,99055.66
2022-10-01T10:44:49.386Z,99058.75
2022-10-01T10:47:19.144Z,99060.50
2022-10-01T10:49:58.469Z,99057.34
2022-10-01T10:52:35.141Z,99057.72
2022-10-01T10:55:23.132Z,99060.13
2022-10-01T10:57:51.549Z,99059.47
2022-10-01T11:00:26.587Z,99061.88
2022-10-01T11:02:53.151Z,99052.41
2022-10-01T11:05:23.147Z,99043.25
2022-10-01T11:07:54.633Z,99049.59
2022-10-01T11:10:21.727Z,99033.66
2022-10-01T11:13:10.012Z,99028.75
2022-10-01T11:15:57.382Z,99018.59
2022-10-01T11:18:42.597Z,99003.75
2022-10-01T11:21:24.353Z,99000.38
2022-10-01T11:24:29.603Z,98990.78
2022-10-01T11:27:12.463Z,98978.63
2022-10-01T11:29:54.177Z,98980.13
2022-10-01T11:32:48.148Z,98979.44
2022-10-01T11:35:18.700Z,98980.38
2022-10-01T11:38:06.682Z,98978.34
2022-10-01T11:40:39.997Z,98980.88
2022-10-01T11:43:22.159Z,98976.47
2022-10-01T11:45:56.763Z,98978.78
2022-10-01T11:48:38.232Z,98975.38
2022-10-01T11:51:16.293Z,98966.78
2022-10-01T11:53:59.993Z,98951.63
2022-10-01T11:56:53.779Z,98960.13
2022-10-01T11:59:29.465Z,98959.97
2022-10-01T12:02:15.265Z,98955.81
2022-10-01T12:04:52.933Z,98955.22
2022-10-01T12:07:30.269Z,98945.72
2022-10-01T12:10:28.700Z,98940.81
2022-10-01T12:13:01.463Z,98941.97
2022-10-01T12:15:49.316Z,98946.28
2022-10-01T12:18:37.401Z,98943.91
2022-10-01T12:21:12.856Z,98950.25
2022-10-01T12:24:00.386Z,98939.16
2022-10-01T12:26:48.519Z,98943.41
2022-10-01T12:29:23.344Z,98931.13
2022-10-01T12:32:02.261Z,98922.28
2022-10-01T12:34:38.599Z,98933.97
2022-10-01T12:37:26.257Z,98926.09
2022-10-01T12:40:31.458Z,98929.44
2022-10-01T12:43:22.178Z,98921.03
2022-10-01T12:46:05.545Z,98927.38
2022-10-01T12:48:52.681Z,98914.19
2022-10-01T12:51:42.858Z,98912.88
2022-10-01T12:54:15.026Z,98913.34
2022-10-01T12:56:49.156Z,98919.88
2022-10-01T12:59:41.953Z,98917.63
2022-10-01T13:02:43.811Z,98903.13
2022-10-01T13:05:33.060Z,98896.34
2022-10-01T13:08:12.746Z,98891.47
2022-10-01T13:10:42.001Z,98890.56
2022-10-01T13:13:23.694Z,98888.88
2022-10-01T13:15:59.705Z,98886.69
2022-10-01T13:18:38.908Z,98879.75
2022-10-01T13:21:20.630Z,98884.09
2022-10-01T13:23:58.644Z,98880.31
2022-10-01T13:26:53.763Z,98875.59
2022-10-01T13:29:49.544Z,98875.63
2022-10-01T13:32:51.246Z,98882.97
2022-10-01T13:35:24.259Z,98878.34
2022-10-01T13:37:51.303Z,98876.84
2022-10-01T13:40:32.907Z,98879.94
2022-10-01T13:43:03.196Z,98877.50
2022-10-01T13:45:31.387Z,98888.66
2022-10-01T13:48:34.751Z,98882.47
2022-10-01T13:51:10.697Z,98880.66
2022-10-01T13:53:52.050Z,98879.81
2022-10-01T13:56:37.222Z,98887.72
2022-10-01T13:59:20.719Z,98891.06
2022-10-01T14:01:47.748Z,98902.09
2022-10-01T14:04:23.930Z,98899.66
2022-10-01T14:06:54.782Z,98903.84
2022-10-01T14:09:40.570Z,98913.22
2022-10-01T14:12:40.936Z,98903.41
2022-10-01T14:15:58.172Z,98912.75
2022-10-01T14:18:28.887Z,98907.78
2022-10-01T14:21:01.206Z,98911.09
2022-10-01T14:23:41.862Z,98909.59
2022-10-01T14:26:52.290Z,98906.53
2022-10-01T14:30:03.080Z,98901.84
2022-10-01T14:32:51.009Z,98906.66
2022-10-01T14:35:35.150Z,98896.00
2022-10-01T14:38:04.971Z,98887.75
2022-10-01T14:40:38.766Z,98887.09
2022-10-01T14:43:25.309Z,98884.78
2022-10-01T14:45:51.756Z,98874.94
2022-10-01T14:48:18.376Z,98871.34
2022-10-01T14:50:49.534Z,98866.53
2022-10-01T14:53:18.837Z,98880.00
2022-10-01T14:55:48.360Z,98885.53
2022-10-01T14:58:25.765Z,98878.50
2022-10-01T15:00:54.257Z,98872.94
2022-10-01T15:03:21.248Z,98872.97
2022-10-01T15:05:49.266Z,98873.78
2022-10-01T15:08:38.120Z,98872.97
2022-10-01T15:11:08.272Z,98880.13
2022-10-01T15:13:40.709Z,98877.03
2022-10-01T15:16:14.034Z,98879.03
2022-10-01T15:19:06.833Z,98884.13
2022-10-01T15:21:41.060Z,98875.09
2022-10-01T15:24:16.555Z,98878.31
2022-10-01T15:26:47.421Z,98874.81
2022-10-01T15:29:16.526Z,98867.34
2022-10-01T15:31:45.124Z,98873.28
2022-10-01T15:34:13.784Z,98875.69
2022-10-01T15:36:42.301Z,98872.56
2022-10-01T15:39:30.184Z,98871.78
2022-10-01T15:41:57.464Z,98870.25
2022-10-01T15:44:45.587Z,98867.88
2022-10-01T15:47:24.016Z,98876.97
2022-10-01T15:50:10.086Z,98890.03
2022-10-01T15:52:53.066Z,98888.03
2022-10-01T15:55:25.474Z,98893.19
2022-10-01T15:58:03.104Z,98890.88
2022-10-01T16:00:34.712Z,98899.56
2022-10-01T16:03:03.173Z,98900.75
2022-10-01T16:05:37.681Z,98896.81
2022-10-01T16:08:05.403Z,98892.88
2022-10-01T16:10:38.203Z,98857.69
2022-10-01T16:13:32.748Z,98863.19
2022-10-01T16:16:15.154Z,98858.47
2022-10-01T16:18:42.740Z,98874.69
2022-10-01T16:21:11.148Z,98877.06
2022-10-01T16:23:40.371Z,98881.44
2022-10-01T16:26:27.238Z,98886.19
2022-10-01T16:29:18.150Z,98881.44
2022-10-01T16:31:45.885Z,98888.16
2022-10-01T16:34:15.072Z,98894.84
2022-10-01T16:36:41.902Z,98891.66
2022-10-01T16:39:08.818Z,98904.72
2022-10-01T16:41:35.874Z,98900.72
2022-10-01T16:44:05.340Z,98911.78
2022-10-01T16:46:33.469Z,98924.03
2022-10-01T16:49:00.287Z,98918.53
2022-10-01T16:51:27.144Z,98915.81
2022-10-01T16:53:55.008Z,98920.16
2022-10-01T16:56:26.276Z,98918.97
2022-10-01T16:58:53.717Z,98913.06
2022-10-01T17:01:20.342Z,98914.25
2022-10-01T17:03:46.977Z,98888.16
2022-10-01T17:06:13.479Z,98881.41
2022-10-01T17:08:40.026Z,98879.06
2022-10-01T17:11:10.663Z,98892.09
2022-10-01T17:13:39.016Z,98900.00
2022-10-01T17:16:06.487Z,98921.00
2022-10-01T17:18:33.121Z,98918.97
2022-10-01T17:21:03.083Z,98922.06
2022-10-01T17:23:29.558Z,98918.44
2022-10-01T17:25:56.047Z,98918.41
2022-10-01T17:28:24.021Z,98923.16
2022-10-01T17:30:50.664Z,98935.03
2022-10-01T17:33:19.307Z,98925.16
2022-10-01T17:35:51.525Z,98933.81
2022-10-01T17:38:19.250Z,98931.06
2022-10-01T17:40:45.841Z,98927.13
2022-10-01T17:43:14.427Z,98923.16
2022-10-01T17:45:41.380Z,98922.38
2022-10-01T17:48:08.226Z,98923.16
2022-10-01T17:50:35.442Z,98930.63
2022-10-01T17:53:01.969Z,98940.50
2022-10-01T17:55:28.587Z,98940.44
2022-10-01T17:57:55.126Z,98953.44
2022-10-01T18:00:21.650Z,98951.03
2022-10-01T18:02:48.188Z,98946.63
2022-10-01T18:05:15.156Z,98947.78
2022-10-01T18:07:42.257Z,98947.28
2022-10-01T18:10:11.624Z,98946.50
2022-10-01T18:12:38.299Z,98948.81
2022-10-01T18:15:05.324Z,98944.09
2022-10-01T18:17:33.253Z,98940.09
2022-10-01T18:20:00.098Z,98948.72
2022-10-01T18:22:27.737Z,98957.81
2022-10-01T18:24:54.278Z,98964.53
2022-10-01T18:27:20.882Z,98966.94
2022-10-01T18:29:47.392Z,98969.34
2022-10-01T18:32:26.457Z,98966.97
2022-10-01T18:35:01.346Z,98969.34
2022-10-01T18:37:39.071Z,98971.75
2022-10-01T18:40:15.124Z,98967.84
2022-10-01T18:43:06.759Z,98967.84
2022-10-01T18:45:51.874Z,98988.84
2022-10-01T18:48:37.182Z,98986.50
2022-10-01T18:51:34.037Z,98989.75
2022-10-01T18:54:15.779Z,98992.50
2022-10-01T18:57:07.701Z,98981.06
2022-10-01T19:00:07.599Z,98982.66
2022-10-01T19:03:04.326Z,98994.88
2022-10-01T19:05:55.930Z,98985.38
2022-10-01T19:08:35.624Z,98979.78
2022-10-01T19:11:21.979Z,98982.13
2022-10-01T19:14:16.233Z,98988.06
2022-10-01T19:17:14.408Z,98994.47
2022-10-01T19:20:14.395Z,98984.66
2022-10-01T19:22:53.122Z,98998.03
2022-10-01T19:25:30.923Z,99007.47
2022-10-01T19:28:29.252Z,99004.31
2022-10-01T19:31:14.450Z,99020.13
2022-10-01T19:33:49.005Z,99016.53
2022-10-01T19:36:26.088Z,99020.91
2022-10-01T19:38:55.355Z,99031.56
2022-10-01T19:41:36.785Z,99032.72
2022-10-01T19:44:09.763Z,99039.31
2022-10-01T19:46:41.457Z,99034.44
2022-10-01T19:49:08.693Z,99045.03
2022-10-01T19:51:46.146Z,99054.00
2022-10-01T19:54:18.448Z,99052.00
2022-10-01T19:56:48.660Z,99049.59
2022-10-01T19:59:19.947Z,99052.09
2022-10-01T20:01:54.666Z,99059.81
2022-10-01T20:04:40.134Z,99059.28
2022-10-01T20:07:35.922Z,99065.13
2022-10-01T20:10:21.920Z,99060.34
2022-10-01T20:13:16.611Z,99063.06
2022-10-01T20:15:55.843Z,99051.53
2022-10-01T20:18:50.449Z,99064.81
2022-10-01T20:21:54.199Z,99068.41
2022-10-01T20:24:46.224Z,99066.06
2022-10-01T20:27:27.941Z,99077.75
2022-10-01T20:30:27.863Z,99075.59
2022-10-01T20:33:24.469Z,99068.78
2022-10-01T20:36:02.425Z,99082.00
2022-10-01T20:38:47.891Z,99077.69
2022-10-01T20:41:18.097Z,99086.78
2022-10-01T20:43:52.671Z,99081.59
2022-10-01T20:46:36.627Z,99084.03
2022-10-01T20:49:11.326Z,99072.69
2022-10-01T20:51:59.075Z,99086.88
2022-10-01T20:54:33.213Z,99084.22
2022-10-01T20:57:21.183Z,99091.75
2022-10-01T20:59:52.494Z,99087.84
2022-10-01T21:02:44.003Z,99097.16
2022-10-01T21:05:22.121Z,99105.22
2022-10-01T21:07:59.363Z,99092.28
2022-10-01T21:10:35.560Z,99098.75
2022-10-01T21:13:33.081Z,99104.94
2022-10-01T21:16:11.774Z,99101.28
2022-10-01T21:18:45.394Z,99103.84
2022-10-01T21:21:35.225Z,99102.53
2022-10-01T21:24:25.126Z,99113.13
2022-10-01T21:27:13.266Z,99116.56
2022-10-01T21:29:58.630Z,99126.25
2022-10-01T21:32:40.232Z,99133.00
2022-10-01T21:35:44.087Z,99129.69
2022-10-01T21:38:32.316Z,99129.09
2022-10-01T21:41:34.452Z,99130.94
2022-10-01T21:44:11.011Z,99133.72
2022-10-01T21:46:40.231Z,99140.06
2022-10-01T21:49:13.434Z,99142.63
2022-10-01T21:51:43.047Z,99134.06
2022-10-01T21:54:49.719Z,99141.94
2022-10-01T21:57:24.694Z,99149.38
2022-10-01T22:00:18.386Z,99151.53
2022-10-01T22:02:50.774Z,99140.28
2022-10-01T22:05:29.429Z,99141.94
2022-10-01T22:08:08.065Z,99129.06
2022-10-01T22:10:39.256Z,99132.34
2022-10-01T22:13:22.491Z,99123.91
2022-10-01T22:15:54.308Z,99115.34
2022-10-01T22:18:45.336Z,99127.47
2022-10-01T22:21:27.408Z,99129.19
2022-10-01T22:24:04.745Z,99139.38
2022-10-01T22:26:34.130Z,99135.03
2022-10-01T22:31:35.392Z,99135.63
2022-10-01T22:34:08.291Z,99135.97
2022-10-01T22:36:41.400Z,99128.06
2022-10-01T22:39:15.768Z,99131.34
2022-10-01T22:41:47.219Z,99130.16
2022-10-01T22:44:16.378Z,99134.06
2022-10-01T22:46:58.117Z,99139.22
2022-10-01T22:49:37.141Z,99145.91
2022-10-01T22:52:51.819Z,99151.44
2022-10-01T22:55:20.825Z,99151.09
2022-10-01T22:58:22.134Z,99139.25
2022-10-01T23:01:01.662Z,99129.75
2022-10-01T23:03:50.024Z,99141.81
2022-10-01T23:06:28.813Z,99138.69
2022-10-01T23:09:09.908Z,99148.63
2022-10-01T23:12:23.780Z,99154.66
2022-10-01T23:15:02.564Z,99153.16
2022-10-01T23:18:04.697Z,99158.41
2022-10-01T23:20:41.207Z,99169.13
2022-10-01T23:23:31.518Z,99169.06
2022-10-01T23:26:04.138Z,99173.88
2022-10-01T23:28:36.050Z,99179.06
2022-10-01T23:31:40.830Z,99181.06
2022-10-01T23:34:48.607Z,99181.53
2022-10-01T23:37:26.748Z,99183.59
2022-10-01T23:40:09.430Z,99189.88
2022-10-01T23:43:13.759Z,99194.97
2022-10-01T23:45:47.988Z,99197.72
2022-10-01T23:48:39.635Z,99205.94
2022-10-01T23:51:12.384Z,99208.59
2022-10-01T23:53:44.950Z,99206.78
2022-10-01T23:56:39.840Z,99207.03
2022-10-01T23:59:09.388Z,99202.84
